Time;durP1;ratioP1;P1;durP2;ratioP2;P2;SDS_P1;SDS_P2;PMS_P1;PMS_P2;Temp;Humidity;BMP_temperature;BMP_pressure;BME280_temperature;BME280_humidity;BME280_pressure;Samples;Min_cycle;Max_cycle;Signal;HPM_P1;HPM_P2
2023/03/27 00:01:48;;;;;;;;;;;;;;;17.36;47.71;100100.38;4998703;28;1151;-42
2023/03/27 00:04:14;;;;;;;;;;;;;;;16.63;48.02;100111.34;4998036;28;1101;-41
2023/03/27 00:06:40;;;;;;;;;;;;;;;16.37;47.13;100103.38;4998426;28;1160;-41
2023/03/27 00:09:07;;;;;;;;;;;;;;;16.19;46.75;100101.34;4998333;28;1013;-40
2023/03/27 00:11:33;;;;;;;;;;;;;;;16.03;46.21;100096.00;4998199;28;1111;-40
2023/03/27 00:13:58;;;;;;;;;;;;;;;16.32;46.43;100095.19;4998449;28;1045;-38
2023/03/27 00:16:25;;;;;;;;;;;;;;;16.57;47.60;100094.13;4998661;28;870;-38
2023/03/27 00:18:51;;;;;;;;;;;;;;;16.18;46.93;100099.72;4985704;28;1906;-40
2023/03/27 00:21:17;;;;;;;;;;;;;;;17.45;47.20;100099.44;4998056;28;1052;-42
2023/03/27 00:23:42;;;;;;;;;;;;;;;16.53;47.94;100089.50;4998396;28;1127;-45
2023/03/27 00:26:08;;;;;;;;;;;;;;;16.28;46.97;100094.13;4998188;28;1350;-41
2023/03/27 00:28:34;;;;;;;;;;;;;;;17.09;47.51;100088.91;4997325;28;1128;-41
2023/03/27 00:30:59;;;;;;;;;;;;;;;16.30;48.13;100086.44;4998255;28;1231;-39
2023/03/27 00:33:25;;;;;;;;;;;;;;;16.88;48.10;100087.50;4996949;28;1459;-42
2023/03/27 00:35:51;;;;;;;;;;;;;;;16.69;48.26;100093.75;4998130;28;1187;-38
2023/03/27 00:38:17;;;;;;;;;;;;;;;16.37;47.53;100092.41;4998220;28;1095;-41
2023/03/27 00:40:43;;;;;;;;;;;;;;;17.20;47.76;100091.53;4996060;28;1906;-39
2023/03/27 00:43:19;;;;;;;;;;;;;;;16.59;48.05;100099.31;4979884;28;1100;-45
2023/03/27 00:45:45;;;;;;;;;;;;;;;18.32;46.69;100082.72;4997621;28;1200;-40
2023/03/27 00:48:11;;;;;;;;;;;;;;;17.73;48.05;100082.28;4997795;28;1088;-41
2023/03/27 00:50:38;;;;;;;;;;;;;;;17.08;47.86;100081.78;5012632;28;1119;-38
2023/03/27 00:53:05;;;;;;;;;;;;;;;16.61;47.51;100080.66;5005457;28;1459;-39
2023/03/27 00:55:30;;;;;;;;;;;;;;;16.53;46.63;100078.53;4991357;28;1328;-42
2023/03/27 00:57:58;;;;;;;;;;;;;;;16.86;47.21;100073.25;5029146;28;1171;-45
2023/03/27 01:00:24;;;;;;;;;;;;;;;17.01;48.08;100066.75;5028959;28;1910;-43
2023/03/27 01:02:50;;;;;;;;;;;;;;;16.58;47.84;100059.28;4996689;28;1069;-40
2023/03/27 01:05:16;;;;;;;;;;;;;;;16.36;46.88;100068.00;4995688;28;1353;-40
2023/03/27 01:07:41;;;;;;;;;;;;;;;16.48;47.05;100060.22;4996029;28;1076;-42
2023/03/27 01:10:10;;;;;;;;;;;;;;;16.80;47.90;100050.50;4995990;28;1096;-41
2023/03/27 01:12:39;;;;;;;;;;;;;;;16.35;47.64;100047.97;5012575;28;1316;-40
2023/03/27 01:15:10;;;;;;;;;;;;;;;17.42;47.49;100042.31;5028483;28;1147;-41
2023/03/27 01:17:54;;;;;;;;;;;;;;;16.81;47.87;100037.59;4996450;28;1076;-38
2023/03/27 01:20:32;;;;;;;;;;;;;;;16.38;47.19;100038.34;4995957;28;1909;-41
2023/03/27 01:23:13;;;;;;;;;;;;;;;16.43;47.29;100043.78;4995940;28;1362;-42
2023/03/27 01:25:50;;;;;;;;;;;;;;;16.67;47.88;100041.03;4996139;28;1174;-41
2023/03/27 01:28:28;;;;;;;;;;;;;;;16.33;46.92;100041.97;4979602;28;1220;-37
2023/03/27 01:30:54;;;;;;;;;;;;;;;17.42;47.09;100036.00;4995954;28;1416;-40
2023/03/27 01:33:25;;;;;;;;;;;;;;;16.49;47.70;100039.06;4995632;28;1255;-41
2023/03/27 01:35:54;;;;;;;;;;;;;;;16.27;46.90;100032.16;4996203;28;1150;-41
2023/03/27 01:38:28;;;;;;;;;;;;;;;16.01;46.44;100026.91;4983953;28;971;-45
2023/03/27 01:41:09;;;;;;;;;;;;;;;17.28;46.52;100022.19;4995324;28;1906;-43
2023/03/27 01:43:41;;;;;;;;;;;;;;;16.45;47.28;100021.53;4995822;28;1301;-43
2023/03/27 01:46:07;;;;;;;;;;;;;;;18.12;46.42;100013.16;4996982;28;1193;-46
2023/03/27 01:48:33;;;;;;;;;;;;;;;17.26;48.00;100018.91;4997089;28;1080;-44
2023/03/27 01:51:09;;;;;;;;;;;;;;;16.77;47.90;100023.63;4995758;28;1314;-44
2023/03/27 01:53:37;;;;;;;;;;;;;;;16.53;46.84;100018.16;4995594;28;975;-42
2023/03/27 01:56:07;;;;;;;;;;;;;;;17.07;47.85;100014.22;5027969;28;1140;-42
2023/03/27 01:58:35;;;;;;;;;;;;;;;16.60;47.48;100010.38;5028459;28;1108;-45
2023/03/27 02:01:00;;;;;;;;;;;;;;;16.24;47.18;100005.28;4998991;28;1981;-44
2023/03/27 02:03:33;;;;;;;;;;;;;;;16.18;46.34;100006.44;4995735;28;1093;-44
2023/03/27 02:06:00;;;;;;;;;;;;;;;17.28;47.21;100008.44;5012255;28;1448;-42
2023/03/27 02:08:29;;;;;;;;;;;;;;;16.58;47.61;100004.38;4979368;28;1251;-43
2023/03/27 02:11:03;;;;;;;;;;;;;;;16.42;47.65;100007.31;5010609;28;1408;-45
2023/03/27 02:13:33;;;;;;;;;;;;;;;16.99;47.47;100011.31;4995489;28;1020;-40
2023/03/27 02:15:58;;;;;;;;;;;;;;;16.49;47.18;100003.38;4995368;28;1141;-43
2023/03/27 02:18:28;;;;;;;;;;;;;;;16.37;47.06;100004.59;4979125;28;1129;-44
2023/03/27 02:20:53;;;;;;;;;;;;;;;17.33;47.33;100002.88;5011487;28;1993;-42
2023/03/27 02:23:21;;;;;;;;;;;;;;;16.49;47.65;100006.13;4996389;28;1060;-44
2023/03/27 02:25:47;;;;;;;;;;;;;;;17.73;46.92;99989.59;4996713;28;1084;-44
2023/03/27 02:28:29;;;;;;;;;;;;;;;17.07;47.85;99981.25;4994885;28;1305;-40
2023/03/27 02:31:09;;;;;;;;;;;;;;;16.66;47.32;99983.69;4995049;28;1915;-42
2023/03/27 02:33:38;;;;;;;;;;;;;;;16.42;46.25;99977.13;4996352;28;1032;-43
2023/03/27 02:36:05;;;;;;;;;;;;;;;16.19;46.19;99972.44;5011455;28;1206;-43
2023/03/27 02:38:36;;;;;;;;;;;;;;;16.36;46.09;99975.53;4995292;28;1355;-47
2023/03/27 02:41:21;;;;;;;;;;;;;;;17.10;47.33;99972.41;5010640;28;1922;-45
2023/03/27 02:43:55;;;;;;;;;;;;;;;16.55;47.39;99959.13;4996311;28;1041;-44
2023/03/27 02:46:34;;;;;;;;;;;;;;;17.24;47.26;99953.25;4994877;28;1650;-41
2023/03/27 02:49:01;;;;;;;;;;;;;;;16.53;47.80;99960.53;4996707;28;1139;-44
2023/03/27 02:51:28;;;;;;;;;;;;;;;16.21;46.99;99953.75;5014164;28;1280;-43
2023/03/27 02:53:58;;;;;;;;;;;;;;;16.34;47.24;99961.28;4998330;28;1154;-40
2023/03/27 02:56:25;;;;;;;;;;;;;;;16.84;47.37;99949.16;5014851;28;1132;-42
2023/03/27 02:58:58;;;;;;;;;;;;;;;16.39;47.28;99944.75;4998307;28;1025;-43
2023/03/27 03:01:34;;;;;;;;;;;;;;;17.95;46.40;99941.44;5013637;28;1287;-43
2023/03/27 03:04:18;;;;;;;;;;;;;;;16.81;47.75;99936.03;4983342;28;1371;-41
2023/03/27 03:07:05;;;;;;;;;;;;;;;16.80;47.77;99935.19;4998341;28;1287;-43
2023/03/27 03:09:32;;;;;;;;;;;;;;;16.91;48.04;99931.25;5014329;28;1166;-38
2023/03/27 03:11:57;;;;;;;;;;;;;;;16.64;47.25;99929.09;4999599;28;1251;-44
2023/03/27 03:14:24;;;;;;;;;;;;;;;16.29;46.82;99931.16;5014271;28;1862;-43
2023/03/27 03:16:50;;;;;;;;;;;;;;;16.21;46.01;99934.56;4999159;28;1111;-42
2023/03/27 03:19:16;;;;;;;;;;;;;;;16.08;45.37;99920.41;4999135;28;1965;-40
2023/03/27 03:21:42;;;;;;;;;;;;;;;16.67;47.27;99925.75;4997874;28;1293;-37
2023/03/27 03:24:10;;;;;;;;;;;;;;;16.34;47.01;99931.13;4998159;28;1442;-39
2023/03/27 03:26:35;;;;;;;;;;;;;;;17.27;47.16;99924.38;4997874;28;1246;-42
2023/03/27 03:29:01;;;;;;;;;;;;;;;16.72;47.74;99922.94;4998992;28;1199;-42
2023/03/27 03:31:42;;;;;;;;;;;;;;;16.23;47.17;99935.09;4998022;28;1272;-43
2023/03/27 03:34:09;;;;;;;;;;;;;;;17.02;47.37;99939.31;4998121;28;1123;-42
2023/03/27 03:36:35;;;;;;;;;;;;;;;16.69;48.00;99934.53;4999088;28;1057;-42
2023/03/27 03:39:01;;;;;;;;;;;;;;;16.38;47.17;99936.81;4997146;28;1902;-44
2023/03/27 03:41:27;;;;;;;;;;;;;;;17.36;47.25;99938.25;4997265;28;1224;-40
2023/03/27 03:43:52;;;;;;;;;;;;;;;16.46;48.07;99935.38;4997867;28;1165;-40
2023/03/27 03:46:18;;;;;;;;;;;;;;;16.30;46.83;99949.28;4997553;28;1198;-42
2023/03/27 03:48:44;;;;;;;;;;;;;;;17.19;47.13;99952.53;4997866;28;1129;-45
2023/03/27 03:51:10;;;;;;;;;;;;;;;16.43;47.67;99948.56;5025041;28;1208;-45
2023/03/27 03:53:35;;;;;;;;;;;;;;;16.30;46.66;99954.75;5022753;28;1128;-45
2023/03/27 03:56:01;;;;;;;;;;;;;;;17.04;47.37;99946.16;4997456;28;1323;-42
2023/03/27 03:58:27;;;;;;;;;;;;;;;16.47;47.17;99951.53;5024232;28;1088;-45
2023/03/27 04:00:53;;;;;;;;;;;;;;;16.89;47.53;99960.09;5024225;28;1906;-43
2023/03/27 04:03:35;;;;;;;;;;;;;;;16.87;47.37;99956.78;4991878;28;1670;-46
2023/03/27 04:06:04;;;;;;;;;;;;;;;16.42;46.88;99954.34;4994340;28;1867;-45
2023/03/27 04:08:30;;;;;;;;;;;;;;;17.60;46.69;99951.91;4997316;28;1136;-50
2023/03/27 04:11:02;;;;;;;;;;;;;;;16.61;47.68;99954.38;4998390;28;1125;-50
2023/03/27 04:13:53;;;;;;;;;;;;;;;16.40;46.71;99949.13;4997163;28;1198;-48
2023/03/27 04:16:38;;;;;;;;;;;;;;;16.88;47.78;99951.03;4997598;28;1175;-50
2023/03/27 04:19:22;;;;;;;;;;;;;;;16.39;47.15;99942.00;5012894;28;1902;-48
2023/03/27 04:21:55;;;;;;;;;;;;;;;16.13;46.55;99941.50;4996689;28;1457;-48
2023/03/27 04:24:22;;;;;;;;;;;;;;;17.04;47.01;99946.16;4997168;28;1152;-49
2023/03/27 04:26:50;;;;;;;;;;;;;;;16.55;47.54;99961.03;4996573;28;1321;-49
2023/03/27 04:29:24;;;;;;;;;;;;;;;16.38;46.90;99970.59;4997394;28;1152;-45
2023/03/27 04:31:59;;;;;;;;;;;;;;;17.05;47.43;99966.19;4997992;28;1029;-45
2023/03/27 04:34:40;;;;;;;;;;;;;;;16.40;47.26;99965.59;4992299;28;1240;-48
2023/03/27 04:37:26;;;;;;;;;;;;;;;17.45;46.54;99958.44;4996196;28;1415;-45
2023/03/27 04:40:24;;;;;;;;;;;;;;;16.50;47.36;99955.63;4960630;28;2023;-47
2023/03/27 04:42:50;;;;;;;;;;;;;;;16.29;46.66;99942.16;4995111;28;1155;-45
2023/03/27 04:45:16;;;;;;;;;;;;;;;16.05;46.10;99942.94;4996609;28;1119;-42
2023/03/27 04:47:45;;;;;;;;;;;;;;;17.10;46.90;99927.66;5028919;28;1228;-46
2023/03/27 04:50:11;;;;;;;;;;;;;;;16.32;47.33;99918.78;4996667;28;1108;-46
2023/03/27 04:52:37;;;;;;;;;;;;;;;16.14;46.49;99896.50;4996397;28;1346;-48
2023/03/27 04:55:04;;;;;;;;;;;;;;;17.06;47.06;99910.94;4996048;28;1404;-45
2023/03/27 04:57:30;;;;;;;;;;;;;;;16.26;47.45;99907.06;4985585;28;1194;-46
2023/03/27 04:59:59;;;;;;;;;;;;;;;16.18;46.75;99899.47;4996426;28;1906;-46
2023/03/27 05:02:40;;;;;;;;;;;;;;;16.43;47.09;99907.38;4991132;28;1293;-43
2023/03/27 05:05:15;;;;;;;;;;;;;;;16.87;47.20;99902.72;4996139;28;1153;-42
2023/03/27 05:07:45;;;;;;;;;;;;;;;16.30;47.23;99910.88;4993098;28;983;-47
2023/03/27 05:10:16;;;;;;;;;;;;;;;17.23;45.85;99906.88;4993585;28;1184;-43
2023/03/27 05:12:45;;;;;;;;;;;;;;;17.04;46.06;99906.88;5002646;28;1380;-46
2023/03/27 05:15:13;;;;;;;;;;;;;;;16.63;47.21;99908.25;5026715;28;1238;-49
2023/03/27 05:17:42;;;;;;;;;;;;;;;16.40;47.86;99912.66;4988277;28;1234;-47
2023/03/27 05:20:13;;;;;;;;;;;;;;;16.24;48.47;99901.03;4995413;28;1922;-47
2023/03/27 05:22:39;;;;;;;;;;;;;;;16.08;48.59;99903.16;5028562;28;1293;-44
2023/03/27 05:25:16;;;;;;;;;;;;;;;15.89;49.33;99890.19;4995785;28;1230;-46
2023/03/27 05:27:48;;;;;;;;;;;;;;;15.86;49.24;99884.47;4988245;28;1414;-45
2023/03/27 05:30:15;;;;;;;;;;;;;;;15.70;50.00;99887.34;5024576;28;1326;-46
2023/03/27 05:32:47;;;;;;;;;;;;;;;15.63;49.78;99892.34;4990659;28;940;-43
2023/03/27 05:35:17;;;;;;;;;;;;;;;15.53;50.32;99886.97;4995430;28;1280;-45
2023/03/27 05:37:46;;;;;;;;;;;;;;;15.43;50.48;99895.25;5028245;28;1158;-41
2023/03/27 05:40:34;;;;;;;;;;;;;;;15.36;50.51;99890.94;4988450;28;1910;-45
2023/03/27 05:43:02;;;;;;;;;;;;;;;16.67;47.83;99887.31;4994700;28;1233;-45
2023/03/27 05:45:29;;;;;;;;;;;;;;;16.69;47.56;99873.28;4992112;28;1274;-44
2023/03/27 05:47:56;;;;;;;;;;;;;;;16.00;49.32;99873.63;4995043;28;1490;-43
2023/03/27 05:50:22;;;;;;;;;;;;;;;15.72;50.18;99871.44;4994961;28;1324;-45
2023/03/27 05:52:53;;;;;;;;;;;;;;;15.57;50.61;99871.56;4991748;28;1407;-47
2023/03/27 05:55:24;;;;;;;;;;;;;;;15.44;50.64;99873.06;4994777;28;1289;-48
2023/03/27 05:57:50;;;;;;;;;;;;;;;15.32;51.09;99864.41;4996737;28;1099;-44
2023/03/27 06:00:21;;;;;;;;;;;;;;;16.58;48.20;99864.41;5027975;28;1972;-45
2023/03/27 06:02:48;;;;;;;;;;;;;;;16.65;47.70;99853.88;4995436;28;1082;-45
2023/03/27 06:05:15;;;;;;;;;;;;;;;16.03;49.28;99840.97;5011199;28;1230;-47
2023/03/27 06:07:46;;;;;;;;;;;;;;;15.71;50.19;99845.13;4994821;28;1286;-43
2023/03/27 06:10:13;;;;;;;;;;;;;;;15.57;50.88;99841.41;4993205;28;1247;-47
2023/03/27 06:12:39;;;;;;;;;;;;;;;15.43;51.22;99840.47;4980283;28;1038;-44
2023/03/27 06:15:17;;;;;;;;;;;;;;;15.33;51.17;99828.53;5008361;28;1424;-46
2023/03/27 06:18:11;;;;;;;;;;;;;;;16.39;49.06;99823.22;5017522;28;1385;-46
2023/03/27 06:20:38;;;;;;;;;;;;;;;17.01;47.18;99820.41;4995110;28;1906;-46
2023/03/27 06:23:05;;;;;;;;;;;;;;;16.11;49.26;99808.50;4996573;28;1271;-42
2023/03/27 06:25:33;;;;;;;;;;;;;;;15.79;50.20;99796.25;4996455;28;1177;-46
2023/03/27 06:28:00;;;;;;;;;;;;;;;15.58;50.67;99801.97;4998981;28;1406;-45
2023/03/27 06:30:26;;;;;;;;;;;;;;;15.43;50.98;99805.69;4999931;28;1268;-47
2023/03/27 06:33:24;;;;;;;;;;;;;;;15.31;51.59;99808.00;4982017;28;1354;-45
2023/03/27 06:35:51;;;;;;;;;;;;;;;15.98;50.27;99810.84;4999754;28;1196;-44
2023/03/27 06:38:17;;;;;;;;;;;;;;;17.16;46.98;99804.78;4998044;28;1472;-47
2023/03/27 06:40:43;;;;;;;;;;;;;;;16.19;49.44;99802.38;5031448;28;1906;-48
2023/03/27 06:43:09;;;;;;;;;;;;;;;15.74;50.33;99799.88;4998500;28;1269;-46
2023/03/27 06:45:47;;;;;;;;;;;;;;;15.56;50.80;99799.50;4998293;28;1343;-43
2023/03/27 06:48:25;;;;;;;;;;;;;;;15.40;51.47;99792.56;4999373;28;1367;-49
2023/03/27 06:50:54;;;;;;;;;;;;;;;15.36;51.33;99789.59;5010632;28;1412;-46
2023/03/27 06:53:20;;;;;;;;;;;;;;;16.59;48.66;99787.25;4999581;28;1065;-45
2023/03/27 06:55:48;;;;;;;;;;;;;;;16.80;48.13;99795.16;5024300;28;1132;-48
2023/03/27 06:58:14;;;;;;;;;;;;;;;15.99;50.03;99789.72;4998073;28;1507;-49
2023/03/27 07:00:40;;;;;;;;;;;;;;;15.74;50.87;99778.75;4999405;28;1994;-47
2023/03/27 07:03:18;;;;;;;;;;;;;;;15.52;51.45;99784.75;4999365;28;1086;-44
2023/03/27 07:06:04;;;;;;;;;;;;;;;15.40;51.45;99782.44;4977703;28;1184;-44
2023/03/27 07:08:37;;;;;;;;;;;;;;;15.73;50.93;99774.38;4997066;28;1228;-48
2023/03/27 07:11:03;;;;;;;;;;;;;;;17.14;47.55;99768.53;4996170;28;1329;-49
2023/03/27 07:13:29;;;;;;;;;;;;;;;16.20;49.63;99758.19;4991570;28;1120;-42
2023/03/27 07:15:57;;;;;;;;;;;;;;;15.83;50.65;99761.69;5029012;28;1360;-42
2023/03/27 07:18:23;;;;;;;;;;;;;;;15.67;51.02;99766.50;4996645;28;1330;-48
2023/03/27 07:20:52;;;;;;;;;;;;;;;15.52;51.36;99754.63;4997490;28;1946;-45
2023/03/27 07:23:20;;;;;;;;;;;;;;;15.42;51.82;99759.38;4997884;28;1154;-47
2023/03/27 07:25:55;;;;;;;;;;;;;;;16.00;50.66;99759.28;5030720;28;1349;-42
2023/03/27 07:28:32;;;;;;;;;;;;;;;16.77;48.55;99755.41;4984114;28;1419;-45
2023/03/27 07:31:09;;;;;;;;;;;;;;;15.96;50.59;99747.25;4992415;28;1287;-47
2023/03/27 07:33:35;;;;;;;;;;;;;;;15.65;51.27;99742.13;4997486;28;1192;-47
2023/03/27 07:36:05;;;;;;;;;;;;;;;15.50;51.80;99756.84;4997433;28;1318;-46
2023/03/27 07:38:45;;;;;;;;;;;;;;;15.70;51.45;99742.09;4979315;28;1148;-41
2023/03/27 07:41:21;;;;;;;;;;;;;;;17.23;47.52;99744.78;4993582;28;1906;-42
2023/03/27 07:43:55;;;;;;;;;;;;;;;16.39;49.63;99743.66;4994885;28;1364;-48
2023/03/27 07:46:25;;;;;;;;;;;;;;;15.92;50.70;99740.72;5023818;28;1151;-43
2023/03/27 07:48:52;;;;;;;;;;;;;;;15.68;51.24;99727.88;4996625;28;1318;-42
2023/03/27 07:51:22;;;;;;;;;;;;;;;15.54;51.73;99724.19;5010767;28;1569;-48
2023/03/27 07:53:52;;;;;;;;;;;;;;;15.39;51.86;99728.75;4988082;28;1507;-52
2023/03/27 07:56:22;;;;;;;;;;;;;;;15.46;51.86;99717.44;4994133;28;1340;-54
2023/03/27 07:58:56;;;;;;;;;;;;;;;17.10;48.08;99722.47;5027213;28;1350;-52
2023/03/27 08:01:22;;;;;;;;;;;;;;;16.30;49.89;99716.09;4991640;28;1918;-51
2023/03/27 08:03:48;;;;;;;;;;;;;;;15.85;50.93;99723.84;4996546;28;1264;-52
2023/03/27 08:06:15;;;;;;;;;;;;;;;15.70;51.69;99716.59;4996879;28;1239;-53
2023/03/27 08:08:41;;;;;;;;;;;;;;;15.56;51.78;99716.50;4994206;28;1289;-52
2023/03/27 08:11:07;;;;;;;;;;;;;;;15.66;51.70;99708.16;4989027;28;1152;-55
2023/03/27 08:13:38;;;;;;;;;;;;;;;17.13;48.16;99701.81;4996980;28;1238;-46
2023/03/27 08:16:06;;;;;;;;;;;;;;;16.29;50.12;99700.72;4996691;28;1331;-51
2023/03/27 08:18:32;;;;;;;;;;;;;;;16.05;51.12;99690.66;4996296;28;1177;-54
2023/03/27 08:20:59;;;;;;;;;;;;;;;15.71;51.54;99675.19;4995910;28;1981;-54
2023/03/27 08:23:26;;;;;;;;;;;;;;;15.56;52.00;99678.16;4995579;28;1340;-56
2023/03/27 08:26:14;;;;;;;;;;;;;;;15.67;52.04;99665.09;4977540;28;1632;-55
2023/03/27 08:28:52;;;;;;;;;;;;;;;17.22;48.08;99660.72;4995732;28;1185;-54
2023/03/27 08:31:21;;;;;;;;;;;;;;;16.38;50.29;99654.22;5011914;28;1332;-55
2023/03/27 08:33:46;;;;;;;;;;;;;;;15.99;51.06;99660.84;4995641;28;1812;-55
2023/03/27 08:36:19;;;;;;;;;;;;;;;15.73;51.76;99644.75;4997871;28;1111;-55
2023/03/27 08:38:45;;;;;;;;;;;;;;;15.62;51.91;99640.53;4997435;28;1060;-54
2023/03/27 08:41:37;;;;;;;;;;;;;;;15.48;52.25;99629.47;4996287;28;1906;-54
2023/03/27 08:44:12;;;;;;;;;;;;;;;16.86;49.32;99639.41;4989831;28;1402;-54
2023/03/27 08:46:45;;;;;;;;;;;;;;;16.45;50.15;99631.91;4980251;28;1351;-53
2023/03/27 08:49:16;;;;;;;;;;;;;;;15.97;51.20;99620.03;4995371;28;1356;-53
2023/03/27 08:52:09;;;;;;;;;;;;;;;15.73;51.67;99626.38;4996252;28;1078;-54
2023/03/27 08:54:37;;;;;;;;;;;;;;;15.57;52.13;99628.53;4996160;28;1168;-54
2023/03/27 08:57:15;;;;;;;;;;;;;;;15.42;52.37;99616.94;4996086;28;1063;-54
2023/03/27 08:59:41;;;;;;;;;;;;;;;15.42;52.42;99614.19;4979558;28;1914;-53
2023/03/27 09:02:29;;;;;;;;;;;;;;;16.92;49.03;99613.50;4995665;28;1196;-54
2023/03/27 09:05:04;;;;;;;;;;;;;;;16.43;50.00;99613.78;5011104;28;1422;-54
2023/03/27 09:07:31;;;;;;;;;;;;;;;15.91;51.44;99607.53;4979926;28;1226;-55
2023/03/27 09:10:28;;;;;;;;;;;;;;;15.70;52.20;99590.53;4991946;28;1334;-55
2023/03/27 09:13:17;;;;;;;;;;;;;;;15.50;52.58;99583.41;4995783;28;1089;-48
2023/03/27 09:16:02;;;;;;;;;;;;;;;16.85;49.38;99591.09;5028218;28;1095;-48
2023/03/27 09:18:28;;;;;;;;;;;;;;;16.53;50.12;99574.38;5028226;28;1500;-51
2023/03/27 09:21:02;;;;;;;;;;;;;;;16.06;51.31;99577.13;5001996;28;1971;-46
2023/03/27 09:23:33;;;;;;;;;;;;;;;15.78;51.78;99572.59;4988887;28;1124;-54
2023/03/27 09:26:12;;;;;;;;;;;;;;;15.64;52.46;99572.53;4996929;28;1045;-53
2023/03/27 09:29:07;;;;;;;;;;;;;;;15.46;52.56;99564.03;4978159;28;1259;-49
2023/03/27 09:31:43;;;;;;;;;;;;;;;15.84;52.02;99552.28;5011749;28;1212;-49
2023/03/27 09:34:10;;;;;;;;;;;;;;;17.23;48.61;99544.22;5011680;28;1028;-52
2023/03/27 09:36:37;;;;;;;;;;;;;;;16.37;50.40;99537.41;4995647;28;1066;-53
2023/03/27 09:39:06;;;;;;;;;;;;;;;15.94;51.77;99529.34;4976503;28;1421;-51
2023/03/27 09:41:33;;;;;;;;;;;;;;;15.72;52.12;99514.31;4986694;28;1973;-53
2023/03/27 09:44:26;;;;;;;;;;;;;;;15.63;52.39;99514.19;5011512;28;1485;-49
2023/03/27 09:47:04;;;;;;;;;;;;;;;15.46;52.71;99516.63;5021535;28;1144;-50
2023/03/27 09:49:30;;;;;;;;;;;;;;;15.35;53.15;99516.78;4998348;28;1264;-49
2023/03/27 09:51:57;;;;;;;;;;;;;;;15.92;51.97;99518.66;4996514;28;1143;-53
2023/03/27 09:54:31;;;;;;;;;;;;;;;17.10;49.02;99510.16;4996300;28;1101;-49
2023/03/27 09:57:03;;;;;;;;;;;;;;;16.19;51.29;99508.91;4978219;28;1274;-50
2023/03/27 09:59:38;;;;;;;;;;;;;;;15.82;52.09;99513.38;4996696;28;1899;-50
2023/03/27 10:02:17;;;;;;;;;;;;;;;15.65;52.53;99492.75;4998528;28;1415;-50
2023/03/27 10:04:59;;;;;;;;;;;;;;;15.55;52.65;99487.44;4998852;28;1142;-49
2023/03/27 10:07:30;;;;;;;;;;;;;;;15.55;52.99;99473.75;4988257;28;1103;-47
2023/03/27 10:10:07;;;;;;;;;;;;;;;17.09;49.02;99481.06;4999877;28;1200;-49
2023/03/27 10:12:49;;;;;;;;;;;;;;;16.23;51.15;99477.03;4998889;28;1205;-53
2023/03/27 10:15:33;;;;;;;;;;;;;;;15.86;52.34;99462.31;4995099;28;1440;-48
2023/03/27 10:18:00;;;;;;;;;;;;;;;15.70;52.48;99454.31;4986761;28;1146;-48
2023/03/27 10:20:25;;;;;;;;;;;;;;;15.56;52.86;99448.00;4981549;28;1906;-49
2023/03/27 10:22:52;;;;;;;;;;;;;;;15.44;53.05;99445.69;5019758;28;1266;-49
2023/03/27 10:25:25;;;;;;;;;;;;;;;15.71;52.65;99458.69;4998258;28;1247;-51
2023/03/27 10:28:17;;;;;;;;;;;;;;;17.08;49.39;99462.97;5029898;28;1112;-49
2023/03/27 10:31:01;;;;;;;;;;;;;;;16.02;52.01;99452.72;4999907;28;1029;-49
2023/03/27 10:33:47;;;;;;;;;;;;;;;15.74;52.72;99438.91;4981711;28;1486;-52
2023/03/27 10:36:34;;;;;;;;;;;;;;;15.56;53.08;99415.13;4984309;28;1156;-50
2023/03/27 10:39:08;;;;;;;;;;;;;;;15.45;53.05;99427.34;5014280;28;1744;-51
2023/03/27 10:42:05;;;;;;;;;;;;;;;15.60;52.96;99413.41;4988930;28;1547;-50
2023/03/27 10:44:31;;;;;;;;;;;;;;;17.08;49.50;99397.88;4997142;28;1389;-53
2023/03/27 10:46:57;;;;;;;;;;;;;;;16.43;50.83;99394.31;4978334;28;1507;-52
2023/03/27 10:49:27;;;;;;;;;;;;;;;15.96;52.20;99396.31;4997156;28;1270;-56
2023/03/27 10:52:09;;;;;;;;;;;;;;;15.71;52.61;99390.19;5028752;28;1521;-56
2023/03/27 10:55:13;;;;;;;;;;;;;;;15.52;53.12;99375.72;5009058;28;1465;-55
2023/03/27 10:57:39;;;;;;;;;;;;;;;15.40;53.36;99376.19;4981742;28;1331;-53
2023/03/27 11:00:21;;;;;;;;;;;;;;;16.71;50.55;99366.81;4990040;28;1913;-54
2023/03/27 11:03:17;;;;;;;;;;;;;;;16.36;51.44;99360.97;4997171;28;1154;-55
2023/03/27 11:05:46;;;;;;;;;;;;;;;15.84;52.47;99365.88;5013365;28;1605;-54
2023/03/27 11:08:31;;;;;;;;;;;;;;;15.63;53.08;99352.50;5001674;28;1234;-55
2023/03/27 11:10:59;;;;;;;;;;;;;;;15.49;53.22;99352.47;4979583;28;1480;-52
2023/03/27 11:13:32;;;;;;;;;;;;;;;15.36;53.36;99345.88;4980682;28;1045;-50
2023/03/27 11:16:10;;;;;;;;;;;;;;;16.21;52.18;99339.38;4982543;28;1361;-47
2023/03/27 11:19:04;;;;;;;;;;;;;;;16.97;49.67;99347.06;4991461;28;1272;-54
2023/03/27 11:21:47;;;;;;;;;;;;;;;16.07;51.98;99347.59;4993271;28;1480;-54
2023/03/27 11:24:21;;;;;;;;;;;;;;;15.77;52.83;99340.75;4985322;28;1239;-52
2023/03/27 11:27:04;;;;;;;;;;;;;;;15.56;53.37;99338.41;5021794;28;1188;-50
2023/03/27 11:29:31;;;;;;;;;;;;;;;15.52;53.60;99326.41;4997857;28;1263;-52
2023/03/27 11:32:02;;;;;;;;;;;;;;;17.02;50.05;99330.44;5013845;28;1204;-50
2023/03/27 11:34:56;;;;;;;;;;;;;;;16.31;51.73;99327.38;4998573;28;1178;-50
2023/03/27 11:37:40;;;;;;;;;;;;;;;15.84;52.77;99303.63;4997481;28;1141;-54
2023/03/27 11:40:26;;;;;;;;;;;;;;;15.66;53.36;99316.28;4989073;28;2000;-53
2023/03/27 11:42:58;;;;;;;;;;;;;;;15.51;53.60;99313.81;5017648;28;1277;-52
2023/03/27 11:45:26;;;;;;;;;;;;;;;15.44;53.54;99305.19;4995637;28;1204;-49
2023/03/27 11:47:58;;;;;;;;;;;;;;;17.01;50.29;99298.63;4998504;28;1021;-54
2023/03/27 11:50:30;;;;;;;;;;;;;;;16.43;51.42;99290.03;4997282;28;1411;-53
2023/03/27 11:53:02;;;;;;;;;;;;;;;15.85;53.01;99293.47;4997210;28;1365;-46
2023/03/27 11:56:01;;;;;;;;;;;;;;;15.66;53.38;99283.41;4998048;28;919;-47
2023/03/27 11:58:31;;;;;;;;;;;;;;;15.50;53.49;99280.16;4996878;28;1246;-46
2023/03/27 12:01:00;;;;;;;;;;;;;;;15.39;53.61;99271.31;4998242;28;1969;-52
2023/03/27 12:03:33;;;;;;;;;;;;;;;16.89;50.50;99263.50;5007001;28;1113;-55
2023/03/27 12:06:01;;;;;;;;;;;;;;;16.36;51.59;99266.91;5013097;28;1139;-50
2023/03/27 12:08:41;;;;;;;;;;;;;;;15.84;53.01;99261.72;4983048;28;1886;-52
2023/03/27 12:11:08;;;;;;;;;;;;;;;15.65;53.49;99259.84;4994956;28;1327;-48
2023/03/27 12:13:43;;;;;;;;;;;;;;;15.52;53.61;99255.19;4995533;28;1280;-47
2023/03/27 12:16:38;;;;;;;;;;;;;;;15.87;53.20;99242.72;4995809;28;1239;-50
2023/03/27 12:19:24;;;;;;;;;;;;;;;17.28;49.65;99241.91;5002449;28;1725;-52
2023/03/27 12:22:17;;;;;;;;;;;;;;;16.24;52.10;99237.25;5010748;28;1360;-51
2023/03/27 12:24:48;;;;;;;;;;;;;;;15.86;53.14;99248.50;5007521;28;1394;-51
2023/03/27 12:27:38;;;;;;;;;;;;;;;15.59;53.55;99238.34;4997259;28;1088;-52
2023/03/27 12:30:35;;;;;;;;;;;;;;;15.50;53.45;99222.63;4996155;28;1253;-50
2023/03/27 12:33:30;;;;;;;;;;;;;;;16.92;50.70;99207.94;5028825;28;1404;-47
2023/03/27 12:35:56;;;;;;;;;;;;;;;16.46;51.67;99197.28;4961502;28;1175;-52
2023/03/27 12:38:27;;;;;;;;;;;;;;;16.00;52.60;99183.50;5012264;28;1115;-49
2023/03/27 12:41:01;;;;;;;;;;;;;;;15.78;53.32;99178.75;4996669;28;1969;-49
2023/03/27 12:43:43;;;;;;;;;;;;;;;15.64;53.46;99175.22;4996168;28;1356;-44
2023/03/27 12:46:19;;;;;;;;;;;;;;;15.49;53.57;99177.16;4995800;28;1297;-51
2023/03/27 12:48:54;;;;;;;;;;;;;;;15.90;53.39;99189.22;4995866;28;1253;-46
2023/03/27 12:51:41;;;;;;;;;;;;;;;17.34;49.50;99196.69;5012666;28;1234;-43
2023/03/27 12:54:15;;;;;;;;;;;;;;;16.33;51.96;99204.44;5012733;28;1346;-49
2023/03/27 12:56:41;;;;;;;;;;;;;;;15.96;53.05;99204.41;5028327;28;1325;-52
2023/03/27 12:59:27;;;;;;;;;;;;;;;15.77;53.48;99198.22;5011979;28;1229;-48
2023/03/27 13:02:02;;;;;;;;;;;;;;;15.59;53.61;99206.28;5012538;28;1104;-52
2023/03/27 13:04:44;;;;;;;;;;;;;;;15.48;53.83;99196.63;4983766;28;1174;-53
2023/03/27 13:07:17;;;;;;;;;;;;;;;15.56;53.95;99204.94;4995677;28;1242;-50
2023/03/27 13:10:34;;;;;;;;;;;;;;;17.21;50.04;99195.66;4980719;28;1187;-53
2023/03/27 13:13:11;;;;;;;;;;;;;;;16.21;52.55;99191.25;4985332;28;1097;-51
2023/03/27 13:15:58;;;;;;;;;;;;;;;15.88;53.48;99196.94;5012021;28;1155;-54
2023/03/27 13:19:00;;;;;;;;;;;;;;;15.65;53.81;99191.34;4995365;28;1294;-53
2023/03/27 13:21:50;;;;;;;;;;;;;;;15.52;53.93;99178.47;4995297;28;1906;-54
2023/03/27 13:24:30;;;;;;;;;;;;;;;15.41;53.89;99183.34;4999397;28;1469;-51
2023/03/27 13:27:02;;;;;;;;;;;;;;;15.86;53.36;99175.31;4996621;28;1021;-53